Time;durP1;ratioP1;P1;durP2;ratioP2;P2;SDS_P1;SDS_P2;PMS_P1;PMS_P2;Temp;Humidity;BMP_temperature;BMP_pressure;BME280_temperature;BME280_humidity;BME280_pressure;Samples;Min_cycle;Max_cycle;Signal;HPM_P1;HPM_P2
2022/12/26 00:01:48;;;;;;;0.70;0.60;;;;;;;-0.47;61.34;100693.22;5099632;28;20488;-53
2022/12/26 00:04:15;;;;;;;3.13;0.55;;;;;;;-0.48;60.99;100688.94;5091104;28;20431;-56
2022/12/26 00:07:00;;;;;;;1.45;0.50;;;;;;;-0.49;61.26;100689.78;5107536;28;20039;-56
2022/12/26 00:09:26;;;;;;;2.35;0.55;;;;;;;-0.69;61.04;100647.53;5096133;28;20070;-56
2022/12/26 00:11:52;;;;;;;4.22;1.02;;;;;;;-0.68;61.08;100650.94;5070080;28;20043;-56
2022/12/26 00:14:55;;;;;;;2.38;0.70;;;;;;;-0.47;61.45;100685.53;5087870;28;20140;-55
2022/12/26 00:17:39;;;;;;;1.58;0.75;;;;;;;-0.70;61.35;100656.00;5070701;28;20098;-57
2022/12/26 00:20:06;;;;;;;1.88;0.65;;;;;;;-0.51;61.63;100696.53;5090593;28;20047;-58
2022/12/26 00:22:33;;;;;;;1.48;1.00;;;;;;;-0.50;61.19;100707.59;5079359;28;20089;-52
2022/12/26 00:24:59;;;;;;;3.50;1.42;;;;;;;-0.52;61.64;100697.34;5106746;28;20038;-56
2022/12/26 00:27:25;;;;;;;3.13;1.40;;;;;;;-0.52;61.38;100705.00;5087289;28;20040;-57
2022/12/26 00:29:50;;;;;;;3.10;1.50;;;;;;;-0.50;61.35;100710.16;5068278;28;20037;-56
2022/12/26 00:32:16;;;;;;;2.97;1.17;;;;;;;-0.50;61.61;100710.16;5087871;28;20415;-54
2022/12/26 00:34:42;;;;;;;2.15;1.15;;;;;;;-0.49;61.71;100714.44;5107173;28;20136;-59
2022/12/26 00:37:08;;;;;;;1.67;0.90;;;;;;;-0.50;61.48;100718.69;5105613;28;20048;-55
2022/12/26 00:39:34;;;;;;;2.78;0.90;;;;;;;-0.51;61.46;100710.97;5099206;28;20044;-58
2022/12/26 00:42:00;;;;;;;2.95;1.00;;;;;;;-0.52;61.39;100722.88;5098249;28;20040;-55
2022/12/26 00:45:03;;;;;;;1.80;0.80;;;;;;;-0.50;61.58;100717.81;5098378;28;20426;-61
2022/12/26 00:47:30;;;;;;;2.13;0.73;;;;;;;-0.51;61.37;100721.19;5109940;28;20066;-55
2022/12/26 00:49:58;;;;;;;1.50;0.90;;;;;;;-0.51;61.19;100724.63;5101097;28;20063;-53
2022/12/26 00:52:24;;;;;;;3.53;1.10;;;;;;;-0.51;61.50;100723.75;5108521;28;20043;-56
2022/12/26 00:55:09;;;;;;;1.20;1.10;;;;;;;-0.52;61.51;100722.88;5092119;28;20089;-57
2022/12/26 00:57:35;;;;;;;2.17;0.77;;;;;;;-0.70;61.37;100694.31;5091993;28;20043;-54
2022/12/26 01:00:00;;;;;;;2.38;0.80;;;;;;;-0.55;61.25;100725.38;5106929;28;20060;-55
2022/12/26 01:02:38;;;;;;;2.00;0.80;;;;;;;-0.58;61.20;100729.53;5124669;27;20047;-52
2022/12/26 01:05:26;;;;;;;2.35;0.70;;;;;;;-0.56;61.44;100732.97;5112204;28;20172;-58
2022/12/26 01:07:52;;;;;;;1.35;0.85;;;;;;;-0.56;61.25;100728.75;5090024;28;20036;-54
2022/12/26 01:10:18;;;;;;;1.92;0.80;;;;;;;-0.58;61.60;100719.31;5109268;28;20031;-55
2022/12/26 01:13:02;;;;;;;1.58;0.57;;;;;;;-0.57;61.31;100715.91;5109387;28;20138;-57
2022/12/26 01:15:28;;;;;;;1.10;0.50;;;;;;;-0.58;61.53;100717.63;5093178;28;20039;-54
2022/12/26 01:17:54;;;;;;;2.15;1.00;;;;;;;-0.79;61.42;100678.75;5091481;28;20458;-56
2022/12/26 01:20:20;;;;;;;2.85;0.70;;;;;;;-0.60;61.51;100714.16;5104507;28;20055;-56
2022/12/26 01:22:46;;;;;;;2.63;0.57;;;;;;;-0.59;61.30;100725.25;5101225;28;20031;-54
2022/12/26 01:25:30;;;;;;;0.98;0.70;;;;;;;-0.58;61.61;100725.28;5111658;28;20425;-56
2022/12/26 01:27:56;;;;;;;1.48;0.82;;;;;;;-0.57;61.50;100727.00;5109333;28;20104;-56
2022/12/26 01:30:23;;;;;;;1.60;0.60;;;;;;;-0.75;61.60;100692.47;5094072;28;20543;-54
2022/12/26 01:32:49;;;;;;;3.17;1.00;;;;;;;-0.58;61.61;100715.09;5089049;28;20047;-57
2022/12/26 01:35:15;;;;;;;1.25;0.70;;;;;;;-0.56;61.38;100727.88;5104835;28;20028;-54
2022/12/26 01:38:00;;;;;;;3.63;1.10;;;;;;;-0.77;61.34;100688.97;5092413;28;20043;-54
2022/12/26 01:40:26;;;;;;;5.30;1.25;;;;;;;-0.77;61.17;100681.31;5100896;28;20043;-56
2022/12/26 01:43:11;;;;;;;3.55;1.10;;;;;;;-0.57;61.11;100721.03;5103812;28;20035;-57
2022/12/26 01:45:56;;;;;;;3.97;0.90;;;;;;;-0.61;61.06;100722.63;5103381;28;20139;-55
2022/12/26 01:48:44;;;;;;;2.10;0.88;;;;;;;-0.62;61.16;100725.13;5090570;28;20237;-52
2022/12/26 01:51:28;;;;;;;2.88;0.80;;;;;;;-0.66;60.98;100721.66;5068383;28;20096;-56
2022/12/26 01:54:33;;;;;;;1.23;0.70;;;;;;;-0.67;61.38;100719.91;5082526;28;20532;-57
2022/12/26 01:57:01;;;;;;;3.63;0.93;;;;;;;-0.69;61.47;100713.91;5084239;28;20041;-56
2022/12/26 01:59:29;;;;;;;1.38;0.80;;;;;;;-0.85;61.42;100683.69;5078247;28;20114;-56
2022/12/26 02:01:58;;;;;;;2.15;0.93;;;;;;;-0.65;61.60;100722.53;5097806;28;20508;-57
2022/12/26 02:07:13;;;;;;;1.33;0.80;;;;;;;-0.71;61.53;100727.44;5103684;28;20044;-55
2022/12/26 02:09:57;;;;;;;1.27;0.88;;;;;;;-0.71;61.56;100723.22;5091668;28;20089;-56
2022/12/26 02:12:27;;;;;;;1.20;0.57;;;;;;;-0.73;61.52;100721.47;5109423;28;20043;-58
2022/12/26 02:15:15;;;;;;;1.40;0.65;;;;;;;-1.03;61.19;100665.28;5094894;27;20055;-56
2022/12/26 02:17:42;;;;;;;1.48;0.68;;;;;;;-0.73;61.24;100718.91;5088865;28;20043;-57
2022/12/26 02:20:45;;;;;;;1.42;0.95;;;;;;;-0.69;61.80;100711.38;5097917;28;20077;-57
2022/12/26 02:23:36;;;;;;;1.95;1.00;;;;;;;-0.69;61.71;100718.16;5092227;28;20040;-56
2022/12/26 02:26:46;;;;;;;1.48;0.60;;;;;;;-0.69;61.68;100716.47;5081782;28;20515;-58
2022/12/26 02:29:50;;;;;;;2.60;0.85;;;;;;;-0.70;61.96;100717.28;5029155;28;20060;-55
2022/12/26 02:32:37;;;;;;;1.00;0.70;;;;;;;-0.69;61.61;100713.06;5027387;28;20535;-55
2022/12/26 02:35:38;;;;;;;1.80;0.88;;;;;;;-0.70;61.44;100716.44;5084187;28;20056;-56
2022/12/26 02:38:49;;;;;;;4.32;1.33;;;;;;;-0.70;61.50;100727.50;5010202;28;20038;-55
2022/12/26 02:41:54;;;;;;;3.53;1.00;;;;;;;-0.69;61.38;100724.13;5039378;28;20052;-57
2022/12/26 02:48:30;;;;;;;1.85;1.05;;;;;;;-0.63;61.33;100726.81;5033608;28;20044;-56
2022/12/26 03:15:04;;;;;;;1.90;0.85;;;;;;;-0.67;61.76;100732.69;5035053;28;20468;-55
2022/12/26 03:17:59;;;;;;;1.98;0.82;;;;;;;-0.66;61.85;100731.88;5032942;28;20062;-53
2022/12/26 03:20:44;;;;;;;2.95;1.10;;;;;;;-0.73;61.71;100721.47;5048103;28;20037;-58
2022/12/26 03:23:31;;;;;;;5.68;1.80;;;;;;;-0.63;61.92;100736.22;5039003;28;20037;-56
2022/12/26 03:32:24;;;;;;;2.45;1.13;;;;;;;-0.68;62.18;100730.94;5089445;28;20040;-58
2022/12/26 03:35:12;;;;;;;1.77;0.95;;;;;;;-0.66;61.99;100723.34;5088064;28;20042;-58
2022/12/26 03:37:46;;;;;;;3.83;1.80;;;;;;;-0.66;62.25;100724.22;5087223;28;20107;-59
2022/12/26 04:19:25;;;;;;;1.73;1.23;;;;;;;-0.72;62.02;100741.03;5103945;28;20043;-56
2022/12/26 04:45:42;;;;;;;3.72;1.73;;;;;;;-0.80;62.71;100753.59;5097342;28;20039;-59
2022/12/26 04:51:13;;;;;;;3.50;2.10;;;;;;;-0.78;62.11;100754.50;5086991;28;20051;-55
2022/12/26 04:53:57;;;;;;;5.05;1.88;;;;;;;-1.00;62.14;100722.41;5087434;27;20048;-55
2022/12/26 04:56:23;;;;;;;4.30;2.17;;;;;;;-0.79;61.71;100751.91;5088394;28;20046;-54
2022/12/26 04:58:49;;;;;;;2.17;1.45;;;;;;;-0.80;62.11;100758.72;5102594;28;20044;-53
2022/12/26 05:09:33;;;;;;;2.42;1.10;;;;;;;-0.85;62.00;100778.13;5112431;27;20481;-54
2022/12/26 05:12:04;;;;;;;4.18;1.83;;;;;;;-1.00;61.99;100776.00;5088801;28;20067;-54
2022/12/26 05:14:30;;;;;;;2.15;1.30;;;;;;;-1.16;61.72;100786.56;5090656;28;20068;-52
2022/12/26 05:28:42;;;;;;;2.35;1.70;;;;;;;-1.68;62.01;100747.53;5074066;28;20087;-54
2022/12/26 05:31:27;;;;;;;4.93;2.15;;;;;;;-1.78;61.85;100719.19;5069860;28;20043;-55
2022/12/26 05:34:09;;;;;;;5.47;1.98;;;;;;;-1.34;62.11;100791.97;5090915;28;20047;-55
2022/12/26 05:36:43;;;;;;;5.22;1.83;;;;;;;-1.41;61.97;100784.94;5109135;28;20039;-48
2022/12/26 05:39:09;;;;;;;2.50;1.85;;;;;;;-1.66;61.97;100756.94;5106884;28;20454;-52
2022/12/26 05:41:36;;;;;;;3.25;2.13;;;;;;;-1.57;62.06;100790.38;5094121;28;20040;-52
2022/12/26 05:44:03;;;;;;;3.50;2.00;;;;;;;-1.67;62.48;100790.88;5089272;28;20043;-56
2022/12/26 05:46:29;;;;;;;3.50;2.13;;;;;;;-1.74;62.51;100787.31;5100646;28;20522;-55
2022/12/26 05:49:13;;;;;;;4.95;2.13;;;;;;;-1.78;62.44;100785.44;5108224;28;20047;-58
2022/12/26 05:51:39;;;;;;;2.83;1.83;;;;;;;-1.83;62.54;100791.19;5089342;28;20042;-57
2022/12/26 05:54:05;;;;;;;5.68;2.10;;;;;;;-1.83;62.39;100786.97;5100781;28;20120;-55
2022/12/26 05:56:32;;;;;;;4.20;2.10;;;;;;;-1.80;62.55;100789.66;5092643;28;20064;-59
2022/12/26 05:59:17;;;;;;;4.40;2.08;;;;;;;-1.75;62.72;100787.25;5109494;28;20514;-56
2022/12/26 06:02:01;;;;;;;7.03;2.80;;;;;;;-1.75;62.88;100790.66;5093784;28;20048;-54
2022/12/26 06:04:28;;;;;;;7.15;5.15;;;;;;;-1.76;62.80;100782.97;5095887;28;20469;-52
2022/12/26 06:06:57;;;;;;;5.18;3.03;;;;;;;-1.75;63.03;100777.03;5088683;28;20040;-51
2022/12/26 06:09:23;;;;;;;5.65;3.13;;;;;;;-1.74;63.48;100794.94;5091089;28;20040;-55
2022/12/26 06:11:49;;;;;;;4.57;2.40;;;;;;;-1.73;63.88;100791.56;5086028;28;20094;-53
2022/12/26 06:14:15;;;;;;;2.85;2.00;;;;;;;-1.77;63.72;100787.19;5088583;28;20039;-56
2022/12/26 06:16:41;;;;;;;2.78;2.03;;;;;;;-1.72;63.78;100802.63;5087806;28;20576;-55
2022/12/26 06:19:26;;;;;;;2.83;2.10;;;;;;;-1.69;64.22;100797.63;5080421;28;20098;-57
2022/12/26 06:22:10;;;;;;;3.85;2.40;;;;;;;-1.61;63.99;100801.28;5083071;28;20042;-55
2022/12/26 06:24:36;;;;;;;4.75;2.75;;;;;;;-1.66;64.07;100789.22;5105636;28;20508;-58
2022/12/26 06:27:02;;;;;;;4.68;2.35;;;;;;;-1.47;63.88;100806.84;5073544;28;20108;-56
2022/12/26 06:29:47;;;;;;;4.13;1.90;;;;;;;-1.40;63.72;100803.66;5071356;28;20957;-55
2022/12/26 06:32:13;;;;;;;3.72;1.98;;;;;;;-1.35;63.80;100815.75;5094855;28;20039;-53
2022/12/26 06:34:39;;;;;;;5.45;1.75;;;;;;;-1.51;63.64;100782.91;5086674;28;20566;-56
2022/12/26 06:37:05;;;;;;;4.65;1.73;;;;;;;-1.29;63.79;100826.13;5087992;28;20126;-54
2022/12/26 06:39:50;;;;;;;3.17;1.80;;;;;;;-1.38;63.99;100809.69;5088512;28;20047;-57
2022/12/26 06:42:53;;;;;;;3.65;1.50;;;;;;;-1.19;63.62;100842.59;5084210;28;20090;-56
2022/12/26 06:45:22;;;;;;;4.63;1.50;;;;;;;-1.20;63.61;100845.13;5087608;28;20035;-55
2022/12/26 06:47:48;;;;;;;5.07;1.80;;;;;;;-1.37;63.64;100816.53;5087541;28;20027;-57
2022/12/26 06:50:34;;;;;;;2.83;1.92;;;;;;;-1.15;63.89;100851.22;5073602;28;20436;-53
2022/12/26 06:53:23;;;;;;;5.07;1.90;;;;;;;-1.11;63.62;100850.50;5086323;28;20047;-54
2022/12/26 06:55:50;;;;;;;3.70;1.63;;;;;;;-1.27;63.43;100822.78;5087229;28;20035;-55
2022/12/26 06:58:16;;;;;;;3.00;1.70;;;;;;;-1.05;63.55;100855.81;5086947;28;20040;-55
2022/12/26 07:00:43;;;;;;;3.40;1.40;;;;;;;-1.07;63.40;100850.66;5088075;28;20221;-54
2022/12/26 07:03:09;;;;;;;4.32;1.60;;;;;;;-1.01;63.26;100857.63;5105267;27;20063;-60
2022/12/26 07:05:36;;;;;;;3.47;2.00;;;;;;;-1.32;62.89;100795.44;5092454;28;20058;-54
2022/12/26 07:08:03;;;;;;;2.85;1.80;;;;;;;-1.17;63.11;100823.13;5085449;28;20039;-53
2022/12/26 07:11:06;;;;;;;3.15;1.60;;;;;;;-0.92;63.12;100847.69;5086487;28;20044;-58
2022/12/26 07:14:09;;;;;;;2.70;1.85;;;;;;;-0.87;62.91;100847.00;5106019;28;20508;-54
2022/12/26 07:16:37;;;;;;;2.78;1.60;;;;;;;-0.88;62.98;100852.94;5107149;28;20039;-55
2022/12/26 07:19:21;;;;;;;3.42;2.30;;;;;;;-1.05;62.78;100828.59;5108188;28;20066;-53
2022/12/26 07:21:47;;;;;;;4.65;1.95;;;;;;;-0.90;62.75;100844.38;5101135;28;20500;-54
2022/12/26 07:24:18;;;;;;;3.97;1.83;;;;;;;-0.88;62.68;100858.03;5087841;28;20047;-54
2022/12/26 07:26:45;;;;;;;2.83;1.67;;;;;;;-0.90;62.87;100852.03;5088522;28;20036;-55
2022/12/26 07:29:11;;;;;;;4.03;1.70;;;;;;;-0.89;62.58;100848.63;5099602;28;20035;-58
2022/12/26 07:31:38;;;;;;;2.33;1.55;;;;;;;-1.11;62.56;100810.53;5108016;28;20035;-55
2022/12/26 07:34:04;;;;;;;2.40;1.40;;;;;;;-0.96;62.88;100850.97;5091139;28;20431;-53
2022/12/26 07:36:49;;;;;;;4.32;1.48;;;;;;;-0.96;62.64;100851.84;5108304;28;20422;-55
2022/12/26 07:39:36;;;;;;;5.43;1.83;;;;;;;-0.98;62.70;100855.16;5096841;28;20047;-57
2022/12/26 07:42:04;;;;;;;3.38;1.90;;;;;;;-0.99;62.76;100854.28;5088561;28;20059;-57
2022/12/26 07:44:32;;;;;;;3.58;1.80;;;;;;;-0.96;62.75;100862.06;5071907;28;20041;-57
2022/12/26 07:46:59;;;;;;;2.33;1.63;;;;;;;-0.93;62.82;100869.78;5051816;28;20462;-56
2022/12/26 07:49:25;;;;;;;4.90;1.75;;;;;;;-0.95;62.64;100853.59;5098998;28;20078;-58
2022/12/26 07:51:52;;;;;;;4.45;1.95;;;;;;;-0.91;62.65;100857.94;5112031;28;20099;-59
2022/12/26 07:54:55;;;;;;;5.60;2.30;;;;;;;-0.86;62.88;100860.63;5098061;28;20486;-57
2022/12/26 07:57:20;;;;;;;6.55;2.15;;;;;;;-0.88;62.68;100863.13;5093080;28;20509;-54
2022/12/26 08:00:06;;;;;;;3.72;1.80;;;;;;;-0.84;62.78;100864.13;5091519;28;20177;-53
2022/12/26 08:02:57;;;;;;;4.80;1.95;;;;;;;-0.83;62.76;100862.41;5087989;28;20041;-55
2022/12/26 08:05:48;;;;;;;6.47;1.90;;;;;;;-0.85;63.14;100864.94;5054765;28;20062;-56
2022/12/26 08:08:33;;;;;;;5.78;2.65;;;;;;;-0.85;62.68;100862.38;5080761;28;20051;-55
2022/12/26 08:11:00;;;;;;;4.47;2.33;;;;;;;-0.85;62.68;100880.25;5091765;28;20538;-53
2022/12/26 08:13:27;;;;;;;11.18;2.55;;;;;;;-0.79;62.64;100872.78;5091043;28;20043;-56
2022/12/26 08:15:53;;;;;;;5.85;2.00;;;;;;;-1.13;62.68;100821.50;5090921;28;20046;-53
2022/12/26 08:18:19;;;;;;;5.05;2.67;;;;;;;-0.71;62.55;100881.53;5091666;28;20067;-57
2022/12/26 08:20:45;;;;;;;7.25;3.00;;;;;;;-0.71;62.77;100876.41;5106750;27;20044;-55
2022/12/26 08:23:11;;;;;;;5.30;2.35;;;;;;;-0.74;62.45;100862.69;5100460;28;20039;-51
2022/12/26 08:25:37;;;;;;;8.27;2.42;;;;;;;-0.82;62.19;100853.94;5095219;28;20043;-56
2022/12/26 08:28:03;;;;;;;3.45;2.13;;;;;;;-0.64;62.39;100873.22;5095500;28;20165;-55
2022/12/26 08:30:48;;;;;;;3.70;2.13;;;;;;;-0.62;61.79;100871.56;5089509;28;20031;-54
2022/12/26 08:33:15;;;;;;;8.23;2.95;;;;;;;-0.59;61.93;100868.25;5087421;28;20044;-56
2022/12/26 08:35:41;;;;;;;5.95;3.53;;;;;;;-0.63;61.66;100876.66;5106997;28;20036;-56
2022/12/26 08:38:25;;;;;;;4.47;2.50;;;;;;;-0.64;61.60;100872.38;5090582;28;20169;-55
2022/12/26 08:40:57;;;;;;;3.35;2.20;;;;;;;-0.59;61.87;100879.34;5100361;27;20050;-57
2022/12/26 08:43:24;;;;;;;9.10;2.58;;;;;;;-0.77;61.44;100832.81;5065988;28;20415;-59
2022/12/26 08:46:15;;;;;;;4.55;2.67;;;;;;;-0.51;61.44;100870.19;5090681;28;20134;-57
2022/12/26 08:48:59;;;;;;;4.10;2.55;;;;;;;-0.54;61.33;100867.56;5082947;28;20040;-53
2022/12/26 08:51:25;;;;;;;5.28;3.25;;;;;;;-0.68;61.36;100845.00;5089345;28;20096;-59
2022/12/26 08:54:10;;;;;;;5.95;2.80;;;;;;;-0.49;61.12;100872.81;5074923;28;20063;-55
2022/12/26 08:56:54;;;;;;;6.50;3.75;;;;;;;-0.47;61.48;100859.25;5073632;28;20135;-56
2022/12/26 08:59:20;;;;;;;6.30;3.30;;;;;;;-0.66;60.95;100825.47;5070045;28;20043;-55
2022/12/26 09:01:46;;;;;;;6.05;2.55;;;;;;;-0.42;61.14;100867.91;5086614;28;20514;-57
2022/12/26 09:04:31;;;;;;;5.68;2.60;;;;;;;-0.37;60.88;100862.09;5089495;28;20044;-56
2022/12/26 09:06:56;;;;;;;5.75;2.60;;;;;;;-0.34;60.88;100863.03;5124989;27;20040;-57
2022/12/26 09:09:25;;;;;;;5.90;3.28;;;;;;;-0.49;60.23;100837.91;5086326;28;20039;-58
2022/12/26 09:11:51;;;;;;;5.10;2.83;;;;;;;-0.34;60.61;100862.16;5085557;28;20043;-57
2022/12/26 09:14:17;;;;;;;6.20;2.72;;;;;;;-0.34;60.56;100868.13;5090760;28;20044;-56
2022/12/26 09:16:45;;;;;;;7.00;2.92;;;;;;;-0.47;60.61;100833.69;5090149;28;20063;-56
2022/12/26 09:19:13;;;;;;;5.20;2.50;;;;;;;-0.27;60.46;100858.97;5088191;28;20031;-56
2022/12/26 09:21:39;;;;;;;6.18;2.95;;;;;;;-0.22;60.57;100859.97;5075282;28;20096;-56
2022/12/26 09:24:25;;;;;;;5.60;2.95;;;;;;;-0.35;60.29;100830.63;5087226;28;20039;-56
2022/12/26 09:27:10;;;;;;;5.35;3.22;;;;;;;-0.30;60.43;100830.75;5085569;28;20135;-56
2022/12/26 09:29:39;;;;;;;4.88;2.83;;;;;;;-0.29;60.13;100815.47;5089530;28;20047;-58
2022/12/26 09:32:05;;;;;;;12.38;5.88;;;;;;;0.09;59.71;100854.84;5070348;28;20042;-55
2022/12/26 09:34:50;;;;;;;7.00;3.78;;;;;;;0.17;59.58;100852.47;5088485;28;20058;-55
2022/12/26 09:37:15;;;;;;;5.28;3.08;;;;;;;0.23;59.43;100850.09;5087365;28;20091;-59
2022/12/26 09:39:42;;;;;;;6.22;3.20;;;;;;;0.24;59.69;100855.25;5089163;28;20053;-55
2022/12/26 09:42:20;;;;;;;12.32;3.40;;;;;;;0.04;59.80;100820.63;5074406;28;20039;-57
2022/12/26 09:44:55;;;;;;;4.10;2.95;;;;;;;0.18;59.41;100847.41;5087204;28;20044;-59
2022/12/26 09:47:59;;;;;;;9.05;3.42;;;;;;;0.18;59.21;100847.41;5075450;28;20046;-58
2022/12/26 09:51:01;;;;;;;6.53;3.17;;;;;;;0.18;59.70;100839.75;5075069;28;20036;-59
2022/12/26 09:53:33;;;;;;;5.88;3.03;;;;;;;0.21;59.65;100834.69;5091412;28;20059;-60
2022/12/26 09:56:18;;;;;;;12.85;4.93;;;;;;;0.29;59.31;100843.44;5094196;28;20085;-58
2022/12/26 09:59:23;;;;;;;7.00;3.30;;;;;;;0.41;59.22;100835.22;5075057;28;20038;-58
2022/12/26 10:02:07;;;;;;;5.65;2.88;;;;;;;0.41;59.15;100840.34;5093204;27;20408;-55
2022/12/26 10:04:33;;;;;;;4.20;2.95;;;;;;;0.39;58.94;100824.94;5081974;28;20040;-56
2022/12/26 10:07:32;;;;;;;7.13;4.18;;;;;;;0.41;59.22;100833.53;5080769;28;20047;-56
2022/12/26 10:10:23;;;;;;;6.30;3.58;;;;;;;0.55;58.62;100831.28;5096485;28;20097;-55
2022/12/26 10:13:05;;;;;;;5.20;2.78;;;;;;;0.60;58.64;100841.63;5084602;28;20044;-54
2022/12/26 10:15:41;;;;;;;7.03;3.20;;;;;;;0.60;58.17;100839.94;5079621;28;20044;-56
2022/12/26 10:18:12;;;;;;;8.82;3.30;;;;;;;0.56;58.62;100840.72;5076036;28;20465;-55
2022/12/26 10:21:17;;;;;;;10.55;5.10;;;;;;;0.53;58.57;100834.63;5076467;28;20412;-57
2022/12/26 10:24:03;;;;;;;4.15;3.08;;;;;;;0.27;58.52;100793.94;4998361;28;20529;-55
2022/12/26 10:26:39;;;;;;;9.05;4.10;;;;;;;0.46;58.13;100825.97;5043305;28;20113;-54
2022/12/26 10:29:50;;;;;;;5.03;3.53;;;;;;;0.48;58.18;100831.09;5039411;28;20556;-56
2022/12/26 10:32:29;;;;;;;5.65;3.55;;;;;;;0.39;58.38;100830.06;5035301;28;20475;-57
2022/12/26 10:34:56;;;;;;;5.13;3.22;;;;;;;0.34;58.61;100818.84;5021059;28;20156;-58
2022/12/26 10:37:40;;;;;;;9.43;5.00;;;;;;;0.35;58.55;100829.94;5028400;28;20045;-58
2022/12/26 10:40:28;;;;;;;12.02;4.97;;;;;;;0.33;58.44;100817.09;5021304;28;20079;-55
2022/12/26 10:42:55;;;;;;;5.35;3.25;;;;;;;0.27;58.31;100816.09;5042764;28;20068;-55
2022/12/26 10:45:51;;;;;;;4.72;3.53;;;;;;;0.20;58.57;100824.44;5024384;28;20406;-56
2022/12/26 10:48:35;;;;;;;6.97;4.10;;;;;;;0.16;58.06;100820.91;5043370;28;20132;-54
2022/12/26 10:51:19;;;;;;;4.75;3.45;;;;;;;0.16;58.58;100815.81;5042151;28;20504;-57
2022/12/26 10:53:49;;;;;;;9.10;4.03;;;;;;;0.11;58.37;100819.06;5043267;28;20040;-57
2022/12/26 10:56:16;;;;;;;7.97;4.40;;;;;;;0.08;58.57;100811.34;5042694;28;20045;-57
2022/12/26 10:58:43;;;;;;;5.70;3.65;;;;;;;0.09;58.72;100823.31;5026042;28;20044;-59
2022/12/26 11:01:46;;;;;;;6.00;3.45;;;;;;;0.08;58.87;100819.88;5076926;28;20116;-56
2022/12/26 11:04:21;;;;;;;7.15;3.65;;;;;;;0.01;58.87;100817.97;5075380;28;20491;-54
2022/12/26 11:06:51;;;;;;;4.07;3.50;;;;;;;-0.03;58.65;100814.47;5087410;28;20047;-56
2022/12/26 11:09:44;;;;;;;6.55;3.67;;;;;;;-0.21;59.19;100785.88;5085139;28;20076;-57
2022/12/26 11:12:20;;;;;;;5.82;4.10;;;;;;;-0.04;58.75;100814.44;5097261;28;20043;-56
2022/12/26 11:15:36;;;;;;;7.88;4.90;;;;;;;-0.17;59.15;100795.38;5086415;28;20516;-56
2022/12/26 11:18:33;;;;;;;10.75;4.30;;;;;;;-0.07;59.06;100820.34;5094205;28;20055;-54
2022/12/26 11:21:25;;;;;;;8.65;4.43;;;;;;;-0.12;59.36;100814.25;5078238;28;20066;-56
2022/12/26 11:24:29;;;;;;;6.03;3.22;;;;;;;-0.20;59.09;100810.59;5070977;28;20124;-54
2022/12/26 11:27:33;;;;;;;5.22;3.97;;;;;;;-0.27;59.36;100805.31;5100205;27;20043;-53
2022/12/26 11:30:37;;;;;;;6.32;3.65;;;;;;;-0.32;59.71;100806.88;5087813;28;20067;-55
2022/12/26 11:33:23;;;;;;;5.93;3.50;;;;;;;-0.57;59.73;100780.63;5091708;28;20040;-54
2022/12/26 11:36:16;;;;;;;8.00;3.55;;;;;;;-0.44;59.88;100808.25;5072159;28;20050;-55
2022/12/26 11:39:19;;;;;;;5.78;3.55;;;;;;;-0.51;60.00;100802.91;5098339;28;20837;-54
2022/12/26 11:41:47;;;;;;;8.02;3.65;;;;;;;-0.57;59.84;100798.50;5080858;28;20043;-56
2022/12/26 11:44:32;;;;;;;7.60;3.85;;;;;;;-0.56;60.03;100807.91;5077619;28;20068;-59
2022/12/26 11:47:39;;;;;;;5.43;3.58;;;;;;;-0.60;60.04;100806.09;5097806;28;20636;-56
2022/12/26 11:50:26;;;;;;;7.00;3.75;;;;;;;-0.66;59.89;100813.56;5105485;28;20040;-57
2022/12/26 11:53:14;;;;;;;8.75;4.43;;;;;;;-0.68;60.16;100822.88;5087442;28;20097;-57
2022/12/26 11:55:40;;;;;;;5.78;3.60;;;;;;;-0.73;59.95;100813.38;5080860;28;20039;-57
2022/12/26 11:58:28;;;;;;;5.47;3.60;;;;;;;-0.81;60.22;100807.16;5067680;28;20518;-54
2022/12/26 12:00:59;;;;;;;5.18;3.20;;;;;;;-0.86;60.31;100805.34;5075758;28;20052;-56
2022/12/26 12:03:46;;;;;;;6.03;3.63;;;;;;;-0.90;60.59;100816.28;5069919;28;20694;-58
2022/12/26 12:06:30;;;;;;;8.07;4.32;;;;;;;-0.92;60.83;100814.50;5076437;28;20495;-56
2022/12/26 12:09:28;;;;;;;9.20;4.18;;;;;;;-0.95;60.97;100809.31;5080059;28;20040;-54
2022/12/26 12:12:24;;;;;;;7.07;4.03;;;;;;;-1.05;61.01;100808.19;5092050;28;20101;-54
2022/12/26 12:15:11;;;;;;;6.82;3.88;;;;;;;-1.22;60.99;100782.97;5055793;28;20097;-57
2022/12/26 12:17:48;;;;;;;6.18;4.25;;;;;;;-1.10;61.33;100807.16;5065808;28;20044;-55
2022/12/26 12:20:42;;;;;;;9.25;4.53;;;;;;;-1.15;61.16;100813.81;5080511;28;20090;-53
2022/12/26 12:23:19;;;;;;;6.18;3.72;;;;;;;-1.34;61.39;100793.66;5089542;28;20049;-59
2022/12/26 12:26:30;;;;;;;6.82;4.70;;;;;;;-1.24;62.08;100816.06;5056291;28;20131;-57
2022/12/26 12:29:11;;;;;;;7.75;4.30;;;;;;;-1.27;62.25;100821.09;5089581;27;20051;-55
2022/12/26 12:32:01;;;;;;;10.00;4.60;;;;;;;-1.28;62.20;100816.81;5081119;28;20055;-56
2022/12/26 12:34:45;;;;;;;11.30;4.57;;;;;;;-1.32;62.45;100822.63;5084736;28;20415;-55
2022/12/26 12:37:33;;;;;;;7.57;4.47;;;;;;;-1.34;62.34;100826.81;5075737;28;20570;-55
2022/12/26 12:40:02;;;;;;;6.45;4.30;;;;;;;-1.39;62.54;100813.03;5085446;28;20046;-54
2022/12/26 12:42:42;;;;;;;7.45;4.03;;;;;;;-1.43;62.73;100806.13;5072710;28;20064;-58
2022/12/26 12:45:52;;;;;;;5.70;3.90;;;;;;;-1.42;63.09;100808.72;5078649;28;20041;-54
2022/12/26 12:48:33;;;;;;;9.25;4.38;;;;;;;-1.43;62.68;100812.09;5087510;28;20579;-53
2022/12/26 12:51:33;;;;;;;10.70;4.77;;;;;;;-1.47;63.35;100814.50;5083637;28;20050;-55
2022/12/26 12:54:15;;;;;;;8.05;4.53;;;;;;;-1.52;62.83;100808.38;5085230;28;22104;-56
2022/12/26 12:57:17;;;;;;;8.15;4.05;;;;;;;-1.57;63.30;100817.56;5080362;28;20070;-55
2022/12/26 12:59:49;;;;;;;7.10;4.80;;;;;;;-1.64;63.56;100797.78;5104680;27;20060;-56
2022/12/26 13:02:31;;;;;;;10.52;4.45;;;;;;;-1.68;63.25;100791.72;5083763;28;20044;-57
2022/12/26 13:05:32;;;;;;;8.77;4.70;;;;;;;-1.67;63.56;100805.34;5083792;28;20569;-57
2022/12/26 13:08:21;;;;;;;6.05;3.70;;;;;;;-1.66;63.87;100809.59;5021701;28;20054;-57
2022/12/26 13:11:05;;;;;;;7.00;4.13;;;;;;;-1.65;63.85;100813.88;5086939;28;20052;-56
2022/12/26 13:13:59;;;;;;;6.57;4.30;;;;;;;-1.64;63.83;100811.41;5112205;27;20131;-57
2022/12/26 13:16:31;;;;;;;7.13;3.58;;;;;;;-1.84;63.60;100781.84;5079074;28;20044;-58
2022/12/26 13:19:05;;;;;;;6.07;3.83;;;;;;;-1.72;63.87;100813.69;5079559;28;20143;-57
2022/12/26 13:21:35;;;;;;;7.60;3.53;;;;;;;-1.76;64.21;100819.50;5075858;28;20110;-59
2022/12/26 13:24:23;;;;;;;8.38;3.50;;;;;;;-1.79;64.04;100811.78;5098418;27;20075;-56
2022/12/26 13:27:16;;;;;;;5.45;3.40;;;;;;;-1.80;64.12;100810.03;5095381;28;20040;-58
2022/12/26 13:29:44;;;;;;;8.32;3.70;;;;;;;-1.81;64.26;100812.53;5087532;28;20614;-55
2022/12/26 13:32:21;;;;;;;5.97;3.40;;;;;;;-1.87;64.30;100814.88;5088672;28;20044;-55
2022/12/26 13:34:48;;;;;;;6.78;3.67;;;;;;;-1.87;64.17;100820.84;5087846;28;20040;-58
2022/12/26 13:37:38;;;;;;;12.15;4.57;;;;;;;-1.85;64.39;100828.53;5080988;28;20103;-57
2022/12/26 13:40:10;;;;;;;7.65;3.78;;;;;;;-1.81;64.30;100815.94;5081744;28;20657;-58
2022/12/26 13:45:42;;;;;;;7.05;3.85;;;;;;;-1.82;64.35;100832.03;5084879;28;20040;-54
2022/12/26 13:48:14;;;;;;;6.85;3.33;;;;;;;-1.80;64.28;100824.47;5084858;28;20054;-54
2022/12/26 13:51:00;;;;;;;6.50;3.35;;;;;;;-1.78;64.56;100822.84;5092567;28;20075;-58
2022/12/26 13:53:32;;;;;;;9.20;3.75;;;;;;;-2.04;64.30;100780.34;5073696;28;20036;-56
2022/12/26 13:56:03;;;;;;;7.95;3.67;;;;;;;-1.88;64.48;100819.09;5087894;28;20051;-55
2022/12/26 13:58:48;;;;;;;7.13;3.58;;;;;;;-1.88;64.53;100818.22;5082741;28;20044;-56
2022/12/26 14:02:00;;;;;;;4.57;3.47;;;;;;;-1.89;64.67;100806.31;5076657;28;20058;-55
2022/12/26 14:05:09;;;;;;;9.85;4.22;;;;;;;-1.95;64.40;100806.09;5098587;27;20051;-58
2022/12/26 14:08:04;;;;;;;9.82;4.72;;;;;;;-1.97;64.55;100810.28;5078964;28;20105;-53
2022/12/26 14:11:07;;;;;;;9.73;4.68;;;;;;;-2.04;64.88;100810.91;4998347;28;20104;-55
2022/12/26 14:14:02;;;;;;;7.78;3.72;;;;;;;-2.12;64.78;100795.34;5084820;28;20139;-57
2022/12/26 14:16:57;;;;;;;5.68;3.70;;;;;;;-2.10;65.02;100800.50;5089330;28;20035;-57
2022/12/26 14:20:05;;;;;;;6.13;3.58;;;;;;;-2.10;65.06;100798.81;5091782;28;20503;-57
2022/12/26 14:22:50;;;;;;;6.70;3.92;;;;;;;-2.08;65.05;100798.84;5087215;28;20048;-57
2022/12/26 14:25:41;;;;;;;6.00;3.15;;;;;;;-2.09;65.05;100799.69;5098644;28;20067;-56
2022/12/26 14:28:43;;;;;;;5.55;3.15;;;;;;;-2.13;65.24;100799.56;5066204;28;20067;-58